sensor_id;sensor_type;location;lat;lon;timestamp;P1;durP1;ratioP1;P2;durP2;ratioP2
6667;SDS011;3370;47.712;9.082;2022-10-16T00:01:23;3.43;;;2.30;;
6667;SDS011;3370;47.712;9.082;2022-10-16T00:03:52;7.00;;;2.73;;
6667;SDS011;3370;47.712;9.082;2022-10-16T00:06:20;8.57;;;2.90;;
6667;SDS011;3370;47.712;9.082;2022-10-16T00:08:48;5.77;;;3.90;;
6667;SDS011;3370;47.712;9.082;2022-10-16T00:11:16;3.03;;;2.50;;
6667;SDS011;3370;47.712;9.082;2022-10-16T00:13:48;9.60;;;2.93;;
6667;SDS011;3370;47.712;9.082;2022-10-16T00:16:17;10.40;;;2.30;;
6667;SDS011;3370;47.712;9.082;2022-10-16T00:18:43;3.43;;;3.13;;
6667;SDS011;3370;47.712;9.082;2022-10-16T00:21:11;7.57;;;2.70;;
6667;SDS011;3370;47.712;9.082;2022-10-16T00:23:44;4.77;;;2.77;;
6667;SDS011;3370;47.712;9.082;2022-10-16T00:26:15;8.77;;;3.33;;
6667;SDS011;3370;47.712;9.082;2022-10-16T00:28:42;6.53;;;2.57;;
6667;SDS011;3370;47.712;9.082;2022-10-16T00:31:11;2.43;;;2.23;;
6667;SDS011;3370;47.712;9.082;2022-10-16T00:33:37;6.50;;;3.20;;
6667;SDS011;3370;47.712;9.082;2022-10-16T00:36:06;2.70;;;2.53;;
6667;SDS011;3370;47.712;9.082;2022-10-16T00:38:35;2.57;;;2.23;;
6667;SDS011;3370;47.712;9.082;2022-10-16T00:41:02;3.90;;;2.63;;
6667;SDS011;3370;47.712;9.082;2022-10-16T00:51:27;13.60;;;2.90;;
6667;SDS011;3370;47.712;9.082;2022-10-16T00:54:28;11.17;;;3.20;;
6667;SDS011;3370;47.712;9.082;2022-10-16T00:56:58;10.70;;;2.73;;
6667;SDS011;3370;47.712;9.082;2022-10-16T00:59:32;10.73;;;3.63;;
6667;SDS011;3370;47.712;9.082;2022-10-16T01:02:02;3.67;;;3.47;;
6667;SDS011;3370;47.712;9.082;2022-10-16T01:04:32;2.87;;;2.57;;
6667;SDS011;3370;47.712;9.082;2022-10-16T01:12:18;2.30;;;2.20;;
6667;SDS011;3370;47.712;9.082;2022-10-16T01:17:58;16.63;;;3.70;;
6667;SDS011;3370;47.712;9.082;2022-10-16T01:20:44;6.80;;;2.60;;
6667;SDS011;3370;47.712;9.082;2022-10-16T01:23:36;7.50;;;3.13;;
6667;SDS011;3370;47.712;9.082;2022-10-16T01:35:05;9.33;;;3.37;;
6667;SDS011;3370;47.712;9.082;2022-10-16T01:37:48;7.37;;;3.17;;
6667;SDS011;3370;47.712;9.082;2022-10-16T01:40:28;4.47;;;3.10;;
6667;SDS011;3370;47.712;9.082;2022-10-16T01:43:02;7.00;;;3.10;;
6667;SDS011;3370;47.712;9.082;2022-10-16T01:45:33;2.87;;;2.67;;
6667;SDS011;3370;47.712;9.082;2022-10-16T01:48:01;14.17;;;2.60;;
6667;SDS011;3370;47.712;9.082;2022-10-16T01:50:31;11.90;;;3.30;;
6667;SDS011;3370;47.712;9.082;2022-10-16T01:53:00;6.80;;;3.60;;
6667;SDS011;3370;47.712;9.082;2022-10-16T01:55:30;14.17;;;3.20;;
6667;SDS011;3370;47.712;9.082;2022-10-16T01:58:01;8.53;;;3.83;;
6667;SDS011;3370;47.712;9.082;2022-10-16T02:00:30;15.90;;;3.97;;
6667;SDS011;3370;47.712;9.082;2022-10-16T02:02:56;12.07;;;4.53;;
6667;SDS011;3370;47.712;9.082;2022-10-16T02:05:27;15.10;;;5.23;;
6667;SDS011;3370;47.712;9.082;2022-10-16T02:08:04;9.97;;;6.00;;
6667;SDS011;3370;47.712;9.082;2022-10-16T02:10:31;14.37;;;5.40;;
6667;SDS011;3370;47.712;9.082;2022-10-16T02:13:00;19.83;;;6.00;;
6667;SDS011;3370;47.712;9.082;2022-10-16T02:15:34;17.87;;;6.23;;
6667;SDS011;3370;47.712;9.082;2022-10-16T02:18:02;13.80;;;7.10;;
6667;SDS011;3370;47.712;9.082;2022-10-16T02:20:34;17.63;;;6.90;;
6667;SDS011;3370;47.712;9.082;2022-10-16T02:23:30;12.20;;;4.97;;
6667;SDS011;3370;47.712;9.082;2022-10-16T02:27:07;8.77;;;6.03;;
6667;SDS011;3370;47.712;9.082;2022-10-16T02:29:24;11.43;;;6.53;;
6667;SDS011;3370;47.712;9.082;2022-10-16T02:31:53;13.90;;;5.40;;
6667;SDS011;3370;47.712;9.082;2022-10-16T02:34:25;8.90;;;5.90;;
6667;SDS011;3370;47.712;9.082;2022-10-16T02:36:53;8.97;;;5.27;;
6667;SDS011;3370;47.712;9.082;2022-10-16T02:39:22;10.47;;;5.67;;
6667;SDS011;3370;47.712;9.082;2022-10-16T02:41:48;5.70;;;5.20;;
6667;SDS011;3370;47.712;9.082;2022-10-16T02:44:14;12.80;;;5.50;;
6667;SDS011;3370;47.712;9.082;2022-10-16T02:46:40;8.60;;;5.17;;
6667;SDS011;3370;47.712;9.082;2022-10-16T02:49:05;6.00;;;5.40;;
6667;SDS011;3370;47.712;9.082;2022-10-16T02:51:31;11.10;;;5.60;;
6667;SDS011;3370;47.712;9.082;2022-10-16T02:53:57;10.90;;;5.80;;
6667;SDS011;3370;47.712;9.082;2022-10-16T02:56:23;7.73;;;5.83;;
6667;SDS011;3370;47.712;9.082;2022-10-16T02:58:49;13.53;;;6.13;;
6667;SDS011;3370;47.712;9.082;2022-10-16T03:01:14;7.43;;;6.30;;
6667;SDS011;3370;47.712;9.082;2022-10-16T03:03:41;9.20;;;6.60;;
6667;SDS011;3370;47.712;9.082;2022-10-16T03:06:08;7.80;;;5.90;;
6667;SDS011;3370;47.712;9.082;2022-10-16T03:08:34;8.60;;;5.50;;
6667;SDS011;3370;47.712;9.082;2022-10-16T03:11:00;5.07;;;4.67;;
6667;SDS011;3370;47.712;9.082;2022-10-16T03:13:26;4.53;;;4.13;;
6667;SDS011;3370;47.712;9.082;2022-10-16T03:15:51;5.13;;;4.63;;
6667;SDS011;3370;47.712;9.082;2022-10-16T03:18:17;4.77;;;4.37;;
6667;SDS011;3370;47.712;9.082;2022-10-16T03:20:43;11.37;;;4.03;;
6667;SDS011;3370;47.712;9.082;2022-10-16T03:23:09;12.73;;;4.20;;
6667;SDS011;3370;47.712;9.082;2022-10-16T03:25:35;4.80;;;4.40;;
6667;SDS011;3370;47.712;9.082;2022-10-16T03:28:01;8.10;;;4.20;;
6667;SDS011;3370;47.712;9.082;2022-10-16T03:30:28;7.13;;;4.30;;
6667;SDS011;3370;47.712;9.082;2022-10-16T03:32:54;13.70;;;4.23;;
6667;SDS011;3370;47.712;9.082;2022-10-16T03:35:23;13.43;;;4.30;;
6667;SDS011;3370;47.712;9.082;2022-10-16T03:37:49;7.67;;;4.37;;
6667;SDS011;3370;47.712;9.082;2022-10-16T03:40:16;8.30;;;5.10;;
6667;SDS011;3370;47.712;9.082;2022-10-16T03:42:42;5.57;;;3.80;;
6667;SDS011;3370;47.712;9.082;2022-10-16T03:45:08;7.70;;;4.57;;
6667;SDS011;3370;47.712;9.082;2022-10-16T03:47:36;9.63;;;4.63;;
6667;SDS011;3370;47.712;9.082;2022-10-16T03:50:02;8.00;;;5.77;;
6667;SDS011;3370;47.712;9.082;2022-10-16T03:52:29;13.77;;;5.37;;
6667;SDS011;3370;47.712;9.082;2022-10-16T03:54:55;13.50;;;5.10;;
6667;SDS011;3370;47.712;9.082;2022-10-16T03:57:21;11.83;;;5.37;;
6667;SDS011;3370;47.712;9.082;2022-10-16T03:59:47;12.27;;;6.27;;
6667;SDS011;3370;47.712;9.082;2022-10-16T04:02:12;7.70;;;4.83;;
6667;SDS011;3370;47.712;9.082;2022-10-16T04:04:38;17.17;;;4.90;;
6667;SDS011;3370;47.712;9.082;2022-10-16T04:07:04;14.80;;;5.30;;
6667;SDS011;3370;47.712;9.082;2022-10-16T04:09:30;12.43;;;5.47;;
6667;SDS011;3370;47.712;9.082;2022-10-16T04:11:56;6.53;;;4.97;;
6667;SDS011;3370;47.712;9.082;2022-10-16T04:14:21;5.63;;;4.63;;
6667;SDS011;3370;47.712;9.082;2022-10-16T04:16:48;10.20;;;5.87;;
6667;SDS011;3370;47.712;9.082;2022-10-16T04:19:14;10.63;;;4.80;;
6667;SDS011;3370;47.712;9.082;2022-10-16T04:21:40;7.57;;;4.70;;
6667;SDS011;3370;47.712;9.082;2022-10-16T04:24:06;13.77;;;5.27;;
6667;SDS011;3370;47.712;9.082;2022-10-16T04:26:32;14.97;;;5.20;;
6667;SDS011;3370;47.712;9.082;2022-10-16T04:28:58;14.23;;;5.90;;
6667;SDS011;3370;47.712;9.082;2022-10-16T04:31:24;15.20;;;5.10;;
6667;SDS011;3370;47.712;9.082;2022-10-16T04:33:50;18.07;;;6.00;;
6667;SDS011;3370;47.712;9.082;2022-10-16T04:36:16;11.37;;;5.67;;
6667;SDS011;3370;47.712;9.082;2022-10-16T04:38:41;12.60;;;5.80;;
6667;SDS011;3370;47.712;9.082;2022-10-16T04:41:07;12.03;;;6.40;;
6667;SDS011;3370;47.712;9.082;2022-10-16T04:43:33;19.23;;;6.20;;
6667;SDS011;3370;47.712;9.082;2022-10-16T04:45:59;12.73;;;6.10;;
6667;SDS011;3370;47.712;9.082;2022-10-16T04:48:26;13.93;;;6.07;;
6667;SDS011;3370;47.712;9.082;2022-10-16T04:50:52;11.07;;;6.13;;
6667;SDS011;3370;47.712;9.082;2022-10-16T04:53:18;15.70;;;6.40;;
6667;SDS011;3370;47.712;9.082;2022-10-16T04:55:44;13.03;;;7.20;;
6667;SDS011;3370;47.712;9.082;2022-10-16T04:58:09;13.93;;;5.80;;
6667;SDS011;3370;47.712;9.082;2022-10-16T05:00:35;14.77;;;5.83;;
6667;SDS011;3370;47.712;9.082;2022-10-16T05:03:01;10.70;;;6.30;;
6667;SDS011;3370;47.712;9.082;2022-10-16T05:05:30;10.17;;;5.93;;
6667;SDS011;3370;47.712;9.082;2022-10-16T05:07:56;9.47;;;6.63;;
6667;SDS011;3370;47.712;9.082;2022-10-16T05:10:22;6.13;;;5.20;;
6667;SDS011;3370;47.712;9.082;2022-10-16T05:12:48;8.73;;;5.67;;
6667;SDS011;3370;47.712;9.082;2022-10-16T05:15:15;9.17;;;6.00;;
6667;SDS011;3370;47.712;9.082;2022-10-16T05:17:41;12.80;;;6.30;;
6667;SDS011;3370;47.712;9.082;2022-10-16T05:20:06;7.83;;;5.80;;
6667;SDS011;3370;47.712;9.082;2022-10-16T05:22:33;7.50;;;6.10;;
6667;SDS011;3370;47.712;9.082;2022-10-16T05:24:58;13.83;;;6.13;;
6667;SDS011;3370;47.712;9.082;2022-10-16T05:27:25;18.97;;;6.73;;
6667;SDS011;3370;47.712;9.082;2022-10-16T05:29:50;8.43;;;6.03;;
6667;SDS011;3370;47.712;9.082;2022-10-16T05:32:17;11.87;;;6.10;;
6667;SDS011;3370;47.712;9.082;2022-10-16T05:34:44;14.53;;;6.20;;
6667;SDS011;3370;47.712;9.082;2022-10-16T05:37:10;11.10;;;6.43;;
6667;SDS011;3370;47.712;9.082;2022-10-16T05:39:37;11.17;;;6.50;;
6667;SDS011;3370;47.712;9.082;2022-10-16T05:42:04;25.77;;;7.17;;
6667;SDS011;3370;47.712;9.082;2022-10-16T05:44:30;24.43;;;7.63;;
6667;SDS011;3370;47.712;9.082;2022-10-16T05:46:56;16.70;;;8.37;;
6667;SDS011;3370;47.712;9.082;2022-10-16T05:49:22;18.50;;;7.20;;
6667;SDS011;3370;47.712;9.082;2022-10-16T05:51:47;12.60;;;9.00;;
6667;SDS011;3370;47.712;9.082;2022-10-16T05:54:13;10.47;;;6.83;;
6667;SDS011;3370;47.712;9.082;2022-10-16T05:56:39;13.63;;;6.53;;
6667;SDS011;3370;47.712;9.082;2022-10-16T05:59:05;11.30;;;7.10;;
6667;SDS011;3370;47.712;9.082;2022-10-16T06:01:31;17.43;;;8.20;;
6667;SDS011;3370;47.712;9.082;2022-10-16T06:03:57;11.00;;;7.03;;
6667;SDS011;3370;47.712;9.082;2022-10-16T06:06:24;14.73;;;6.87;;
6667;SDS011;3370;47.712;9.082;2022-10-16T06:08:52;15.40;;;6.97;;
6667;SDS011;3370;47.712;9.082;2022-10-16T06:11:27;10.80;;;7.30;;
6667;SDS011;3370;47.712;9.082;2022-10-16T06:13:56;10.60;;;7.30;;
6667;SDS011;3370;47.712;9.082;2022-10-16T06:16:27;17.40;;;7.33;;
6667;SDS011;3370;47.712;9.082;2022-10-16T06:18:54;10.23;;;7.60;;
6667;SDS011;3370;47.712;9.082;2022-10-16T06:21:25;9.47;;;7.40;;
6667;SDS011;3370;47.712;9.082;2022-10-16T06:23:53;12.10;;;8.20;;
6667;SDS011;3370;47.712;9.082;2022-10-16T06:26:21;14.53;;;8.53;;
6667;SDS011;3370;47.712;9.082;2022-10-16T06:28:49;7.83;;;7.03;;
6667;SDS011;3370;47.712;9.082;2022-10-16T06:31:16;10.80;;;8.70;;
6667;SDS011;3370;47.712;9.082;2022-10-16T06:33:43;13.00;;;8.90;;
6667;SDS011;3370;47.712;9.082;2022-10-16T06:36:14;9.73;;;8.73;;
6667;SDS011;3370;47.712;9.082;2022-10-16T06:38:42;12.37;;;8.30;;
6667;SDS011;3370;47.712;9.082;2022-10-16T06:41:11;10.67;;;7.40;;
6667;SDS011;3370;47.712;9.082;2022-10-16T06:43:39;10.40;;;8.50;;
6667;SDS011;3370;47.712;9.082;2022-10-16T06:46:06;9.97;;;8.50;;
6667;SDS011;3370;47.712;9.082;2022-10-16T06:48:35;9.73;;;8.50;;
6667;SDS011;3370;47.712;9.082;2022-10-16T06:51:02;8.43;;;7.30;;
6667;SDS011;3370;47.712;9.082;2022-10-16T06:53:40;11.77;;;8.10;;
6667;SDS011;3370;47.712;9.082;2022-10-16T06:56:11;10.43;;;7.63;;
6667;SDS011;3370;47.712;9.082;2022-10-16T06:58:40;8.90;;;8.00;;
6667;SDS011;3370;47.712;9.082;2022-10-16T07:01:07;9.93;;;8.93;;
6667;SDS011;3370;47.712;9.082;2022-10-16T07:03:33;7.77;;;6.97;;
6667;SDS011;3370;47.712;9.082;2022-10-16T07:06:06;8.50;;;7.63;;
6667;SDS011;3370;47.712;9.082;2022-10-16T07:08:34;9.47;;;8.30;;
6667;SDS011;3370;47.712;9.082;2022-10-16T07:11:02;8.63;;;7.07;;
6667;SDS011;3370;47.712;9.082;2022-10-16T07:13:34;7.90;;;6.50;;
6667;SDS011;3370;47.712;9.082;2022-10-16T07:16:08;17.80;;;15.83;;
6667;SDS011;3370;47.712;9.082;2022-10-16T07:18:38;14.30;;;12.80;;
6667;SDS011;3370;47.712;9.082;2022-10-16T07:23:33;11.40;;;8.87;;
6667;SDS011;3370;47.712;9.082;2022-10-16T07:25:59;11.90;;;9.07;;
6667;SDS011;3370;47.712;9.082;2022-10-16T07:28:26;31.10;;;9.40;;
6667;SDS011;3370;47.712;9.082;2022-10-16T07:30:52;13.37;;;8.07;;
6667;SDS011;3370;47.712;9.082;2022-10-16T07:33:18;11.40;;;9.20;;
6667;SDS011;3370;47.712;9.082;2022-10-16T07:35:51;21.47;;;8.77;;
6667;SDS011;3370;47.712;9.082;2022-10-16T07:38:18;20.80;;;8.17;;
6667;SDS011;3370;47.712;9.082;2022-10-16T07:40:45;13.20;;;10.20;;
6667;SDS011;3370;47.712;9.082;2022-10-16T07:43:12;16.10;;;8.63;;
6667;SDS011;3370;47.712;9.082;2022-10-16T07:45:45;12.63;;;9.40;;
6667;SDS011;3370;47.712;9.082;2022-10-16T07:48:14;14.40;;;8.23;;
6667;SDS011;3370;47.712;9.082;2022-10-16T07:50:41;17.03;;;9.17;;
6667;SDS011;3370;47.712;9.082;2022-10-16T07:53:07;9.30;;;8.30;;
6667;SDS011;3370;47.712;9.082;2022-10-16T07:55:34;12.80;;;8.50;;
6667;SDS011;3370;47.712;9.082;2022-10-16T07:58:00;8.87;;;7.63;;
6667;SDS011;3370;47.712;9.082;2022-10-16T08:00:26;9.27;;;7.50;;
6667;SDS011;3370;47.712;9.082;2022-10-16T08:02:51;8.23;;;7.43;;
6667;SDS011;3370;47.712;9.082;2022-10-16T08:05:17;10.13;;;9.00;;
6667;SDS011;3370;47.712;9.082;2022-10-16T08:07:48;21.17;;;8.03;;
6667;SDS011;3370;47.712;9.082;2022-10-16T08:10:18;12.33;;;8.00;;
6667;SDS011;3370;47.712;9.082;2022-10-16T08:12:46;11.90;;;8.70;;
6667;SDS011;3370;47.712;9.082;2022-10-16T08:15:11;15.37;;;9.50;;
6667;SDS011;3370;47.712;9.082;2022-10-16T08:17:38;9.10;;;8.20;;
6667;SDS011;3370;47.712;9.082;2022-10-16T08:20:04;13.07;;;7.97;;
6667;SDS011;3370;47.712;9.082;2022-10-16T08:22:31;10.83;;;7.40;;
6667;SDS011;3370;47.712;9.082;2022-10-16T08:24:57;9.40;;;8.47;;
6667;SDS011;3370;47.712;9.082;2022-10-16T08:27:23;9.60;;;7.90;;
6667;SDS011;3370;47.712;9.082;2022-10-16T08:29:49;8.43;;;7.50;;
6667;SDS011;3370;47.712;9.082;2022-10-16T08:32:15;10.20;;;8.50;;
6667;SDS011;3370;47.712;9.082;2022-10-16T08:34:41;8.23;;;7.50;;
6667;SDS011;3370;47.712;9.082;2022-10-16T08:37:07;10.07;;;8.67;;
6667;SDS011;3370;47.712;9.082;2022-10-16T08:39:36;10.30;;;7.50;;
6667;SDS011;3370;47.712;9.082;2022-10-16T08:44:54;9.30;;;8.40;;
6667;SDS011;3370;47.712;9.082;2022-10-16T08:47:35;9.60;;;8.00;;
6667;SDS011;3370;47.712;9.082;2022-10-16T08:50:26;9.67;;;8.67;;
6667;SDS011;3370;47.712;9.082;2022-10-16T08:52:55;10.50;;;8.70;;
6667;SDS011;3370;47.712;9.082;2022-10-16T08:55:38;13.50;;;10.43;;
6667;SDS011;3370;47.712;9.082;2022-10-16T08:58:15;18.60;;;10.60;;
6667;SDS011;3370;47.712;9.082;2022-10-16T09:00:46;10.83;;;9.17;;
6667;SDS011;3370;47.712;9.082;2022-10-16T09:09:16;14.00;;;11.20;;
6667;SDS011;3370;47.712;9.082;2022-10-16T09:11:58;17.17;;;11.47;;
6667;SDS011;3370;47.712;9.082;2022-10-16T09:17:25;12.77;;;10.70;;
6667;SDS011;3370;47.712;9.082;2022-10-16T09:22:57;16.10;;;12.00;;
6667;SDS011;3370;47.712;9.082;2022-10-16T09:25:53;21.43;;;12.20;;
6667;SDS011;3370;47.712;9.082;2022-10-16T09:28:20;18.00;;;13.03;;
6667;SDS011;3370;47.712;9.082;2022-10-16T09:30:46;19.90;;;12.20;;
6667;SDS011;3370;47.712;9.082;2022-10-16T09:33:16;12.53;;;10.47;;
6667;SDS011;3370;47.712;9.082;2022-10-16T09:35:52;14.63;;;12.40;;
6667;SDS011;3370;47.712;9.082;2022-10-16T09:38:31;19.20;;;14.00;;
6667;SDS011;3370;47.712;9.082;2022-10-16T09:41:02;15.07;;;12.77;;
6667;SDS011;3370;47.712;9.082;2022-10-16T09:43:52;15.50;;;12.97;;
6667;SDS011;3370;47.712;9.082;2022-10-16T09:46:25;19.80;;;11.33;;
6667;SDS011;3370;47.712;9.082;2022-10-16T09:48:59;13.87;;;11.33;;
6667;SDS011;3370;47.712;9.082;2022-10-16T09:51:30;19.60;;;12.83;;
6667;SDS011;3370;47.712;9.082;2022-10-16T09:54:23;20.60;;;12.77;;
6667;SDS011;3370;47.712;9.082;2022-10-16T09:56:48;17.93;;;12.30;;
6667;SDS011;3370;47.712;9.082;2022-10-16T09:59:17;17.07;;;9.90;;
6667;SDS011;3370;47.712;9.082;2022-10-16T10:01:46;17.23;;;11.13;;
6667;SDS011;3370;47.712;9.082;2022-10-16T10:04:16;16.23;;;11.13;;
6667;SDS011;3370;47.712;9.082;2022-10-16T10:06:49;15.37;;;9.37;;
6667;SDS011;3370;47.712;9.082;2022-10-16T10:09:39;12.50;;;9.13;;
6667;SDS011;3370;47.712;9.082;2022-10-16T10:12:17;12.93;;;9.50;;
6667;SDS011;3370;47.712;9.082;2022-10-16T10:15:03;18.20;;;10.03;;
6667;SDS011;3370;47.712;9.082;2022-10-16T10:17:45;9.30;;;8.30;;
6667;SDS011;3370;47.712;9.082;2022-10-16T10:22:59;10.83;;;7.97;;
6667;SDS011;3370;47.712;9.082;2022-10-16T10:28:38;7.30;;;6.60;;
6667;SDS011;3370;47.712;9.082;2022-10-16T10:37:23;7.17;;;6.37;;
6667;SDS011;3370;47.712;9.082;2022-10-16T10:43:40;19.90;;;6.30;;
6667;SDS011;3370;47.712;9.082;2022-10-16T10:46:21;8.93;;;7.10;;
6667;SDS011;3370;47.712;9.082;2022-10-16T11:00:23;11.47;;;8.03;;
6667;SDS011;3370;47.712;9.082;2022-10-16T11:05:55;12.50;;;7.27;;
6667;SDS011;3370;47.712;9.082;2022-10-16T11:09:09;8.90;;;6.27;;
6667;SDS011;3370;47.712;9.082;2022-10-16T11:11:43;15.47;;;6.60;;
6667;SDS011;3370;47.712;9.082;2022-10-16T11:14:20;6.77;;;5.73;;
6667;SDS011;3370;47.712;9.082;2022-10-16T11:17:59;6.67;;;4.90;;
6667;SDS011;3370;47.712;9.082;2022-10-16T11:20:28;6.33;;;3.80;;
6667;SDS011;3370;47.712;9.082;2022-10-16T11:23:05;8.33;;;3.80;;
6667;SDS011;3370;47.712;9.082;2022-10-16T11:26:18;6.50;;;3.37;;
6667;SDS011;3370;47.712;9.082;2022-10-16T11:28:54;4.60;;;3.90;;
6667;SDS011;3370;47.712;9.082;2022-10-16T11:31:25;3.23;;;3.03;;
6667;SDS011;3370;47.712;9.082;2022-10-16T11:36:48;3.53;;;3.30;;
6667;SDS011;3370;47.712;9.082;2022-10-16T11:39:34;4.90;;;3.10;;
6667;SDS011;3370;47.712;9.082;2022-10-16T11:42:08;3.33;;;3.00;;
6667;SDS011;3370;47.712;9.082;2022-10-16T11:56:27;9.00;;;7.43;;
6667;SDS011;3370;47.712;9.082;2022-10-16T11:59:00;4.50;;;4.17;;
6667;SDS011;3370;47.712;9.082;2022-10-16T12:01:43;7.03;;;6.33;;
6667;SDS011;3370;47.712;9.082;2022-10-16T12:04:26;4.00;;;3.70;;
6667;SDS011;3370;47.712;9.082;2022-10-16T12:07:14;3.90;;;3.60;;
6667;SDS011;3370;47.712;9.082;2022-10-16T12:09:49;3.90;;;3.60;;
6667;SDS011;3370;47.712;9.082;2022-10-16T12:15:00;8.30;;;5.20;;
6667;SDS011;3370;47.712;9.082;2022-10-16T12:17:45;6.27;;;4.13;;
6667;SDS011;3370;47.712;9.082;2022-10-16T12:22:48;4.10;;;3.60;;
6667;SDS011;3370;47.712;9.082;2022-10-16T12:28:19;4.10;;;3.37;;
6667;SDS011;3370;47.712;9.082;2022-10-16T12:31:06;2.50;;;2.30;;
6667;SDS011;3370;47.712;9.082;2022-10-16T12:36:07;6.80;;;4.20;;
6667;SDS011;3370;47.712;9.082;2022-10-16T12:38:51;2.07;;;1.97;;
6667;SDS011;3370;47.712;9.082;2022-10-16T12:43:54;4.00;;;1.93;;
6667;SDS011;3370;47.712;9.082;2022-10-16T12:46:41;6.17;;;1.90;;
6667;SDS011;3370;47.712;9.082;2022-10-16T12:51:39;4.83;;;1.80;;
6667;SDS011;3370;47.712;9.082;2022-10-16T13:14:41;1.57;;;1.47;;
6667;SDS011;3370;47.712;9.082;2022-10-16T13:26:06;3.73;;;2.00;;
6667;SDS011;3370;47.712;9.082;2022-10-16T13:28:48;2.93;;;1.87;;
6667;SDS011;3370;47.712;9.082;2022-10-16T13:31:17;3.23;;;1.60;;
6667;SDS011;3370;47.712;9.082;2022-10-16T13:33:49;1.70;;;1.60;;
6667;SDS011;3370;47.712;9.082;2022-10-16T13:36:28;1.77;;;1.67;;
6667;SDS011;3370;47.712;9.082;2022-10-16T13:39:00;4.83;;;1.90;;
6667;SDS011;3370;47.712;9.082;2022-10-16T13:41:36;9.17;;;1.80;;
6667;SDS011;3370;47.712;9.082;2022-10-16T13:44:02;3.67;;;1.90;;
6667;SDS011;3370;47.712;9.082;2022-10-16T13:46:29;5.90;;;1.53;;
6667;SDS011;3370;47.712;9.082;2022-10-16T13:49:01;7.83;;;2.33;;
6667;SDS011;3370;47.712;9.082;2022-10-16T13:51:30;2.40;;;2.20;;
6667;SDS011;3370;47.712;9.082;2022-10-16T13:53:57;5.00;;;2.07;;
6667;SDS011;3370;47.712;9.082;2022-10-16T13:56:28;5.57;;;1.90;;
6667;SDS011;3370;47.712;9.082;2022-10-16T13:59:03;2.57;;;1.83;;
6667;SDS011;3370;47.712;9.082;2022-10-16T14:01:40;3.40;;;2.07;;
6667;SDS011;3370;47.712;9.082;2022-10-16T14:04:09;2.30;;;2.10;;
6667;SDS011;3370;47.712;9.082;2022-10-16T14:06:42;4.40;;;1.90;;
6667;SDS011;3370;47.712;9.082;2022-10-16T14:09:18;2.30;;;1.80;;
6667;SDS011;3370;47.712;9.082;2022-10-16T14:14:29;2.07;;;1.97;;
6667;SDS011;3370;47.712;9.082;2022-10-16T14:17:15;1.97;;;1.87;;
6667;SDS011;3370;47.712;9.082;2022-10-16T14:19:54;2.93;;;2.60;;
6667;SDS011;3370;47.712;9.082;2022-10-16T14:22:26;2.20;;;2.10;;
6667;SDS011;3370;47.712;9.082;2022-10-16T14:25:24;5.07;;;2.17;;
6667;SDS011;3370;47.712;9.082;2022-10-16T14:28:00;2.20;;;2.10;;
6667;SDS011;3370;47.712;9.082;2022-10-16T14:30:48;4.47;;;2.90;;
6667;SDS011;3370;47.712;9.082;2022-10-16T14:33:24;5.57;;;2.00;;
6667;SDS011;3370;47.712;9.082;2022-10-16T14:36:01;2.30;;;2.03;;
6667;SDS011;3370;47.712;9.082;2022-10-16T14:38:39;2.40;;;1.80;;
6667;SDS011;3370;47.712;9.082;2022-10-16T14:41:13;3.37;;;2.00;;
6667;SDS011;3370;47.712;9.082;2022-10-16T14:43:40;2.40;;;1.80;;
6667;SDS011;3370;47.712;9.082;2022-10-16T14:46:14;1.90;;;1.80;;
6667;SDS011;3370;47.712;9.082;2022-10-16T14:48:43;4.63;;;1.80;;
6667;SDS011;3370;47.712;9.082;2022-10-16T14:51:16;9.83;;;2.00;;
6667;SDS011;3370;47.712;9.082;2022-10-16T14:53:44;4.47;;;1.93;;
6667;SDS011;3370;47.712;9.082;2022-10-16T14:56:23;1.93;;;1.83;;
6667;SDS011;3370;47.712;9.082;2022-10-16T14:58:53;7.80;;;2.03;;
6667;SDS011;3370;47.712;9.082;2022-10-16T15:01:21;5.83;;;1.77;;
6667;SDS011;3370;47.712;9.082;2022-10-16T15:03:50;3.80;;;1.57;;
6667;SDS011;3370;47.712;9.082;2022-10-16T15:06:56;5.80;;;2.03;;
6667;SDS011;3370;47.712;9.082;2022-10-16T15:09:28;7.60;;;2.37;;
6667;SDS011;3370;47.712;9.082;2022-10-16T15:12:24;1.93;;;1.80;;
6667;SDS011;3370;47.712;9.082;2022-10-16T15:15:15;2.10;;;1.90;;
6667;SDS011;3370;47.712;9.082;2022-10-16T15:18:11;2.20;;;2.10;;
6667;SDS011;3370;47.712;9.082;2022-10-16T15:20:55;2.07;;;1.97;;
6667;SDS011;3370;47.712;9.082;2022-10-16T15:23:32;1.70;;;1.60;;
6667;SDS011;3370;47.712;9.082;2022-10-16T15:26:07;2.80;;;1.73;;
6667;SDS011;3370;47.712;9.082;2022-10-16T15:28:42;3.50;;;2.37;;
6667;SDS011;3370;47.712;9.082;2022-10-16T15:31:17;3.00;;;1.80;;
6667;SDS011;3370;47.712;9.082;2022-10-16T15:34:25;4.40;;;2.00;;
6667;SDS011;3370;47.712;9.082;2022-10-16T15:37:08;2.87;;;1.80;;
6667;SDS011;3370;47.712;9.082;2022-10-16T15:39:52;10.23;;;2.23;;
6667;SDS011;3370;47.712;9.082;2022-10-16T15:42:24;2.20;;;2.10;;
6667;SDS011;3370;47.712;9.082;2022-10-16T15:44:59;8.93;;;2.03;;
6667;SDS011;3370;47.712;9.082;2022-10-16T15:48:14;5.03;;;1.80;;
6667;SDS011;3370;47.712;9.082;2022-10-16T15:51:07;8.13;;;1.90;;
6667;SDS011;3370;47.712;9.082;2022-10-16T15:54:14;3.33;;;2.13;;
6667;SDS011;3370;47.712;9.082;2022-10-16T15:56:46;4.00;;;2.13;;
6667;SDS011;3370;47.712;9.082;2022-10-16T15:59:21;7.53;;;2.10;;
6667;SDS011;3370;47.712;9.082;2022-10-16T16:02:40;5.67;;;2.07;;
6667;SDS011;3370;47.712;9.082;2022-10-16T16:05:36;2.07;;;1.83;;
6667;SDS011;3370;47.712;9.082;2022-10-16T16:08:18;2.50;;;2.03;;
6667;SDS011;3370;47.712;9.082;2022-10-16T16:11:17;2.10;;;2.00;;
6667;SDS011;3370;47.712;9.082;2022-10-16T16:14:14;5.80;;;2.10;;
6667;SDS011;3370;47.712;9.082;2022-10-16T16:17:11;4.23;;;2.50;;
6667;SDS011;3370;47.712;9.082;2022-10-16T16:19:37;6.03;;;2.07;;
6667;SDS011;3370;47.712;9.082;2022-10-16T16:22:03;7.10;;;2.17;;
6667;SDS011;3370;47.712;9.082;2022-10-16T16:24:28;6.07;;;2.50;;
6667;SDS011;3370;47.712;9.082;2022-10-16T16:26:54;5.50;;;2.30;;
6667;SDS011;3370;47.712;9.082;2022-10-16T16:29:20;3.43;;;2.17;;
6667;SDS011;3370;47.712;9.082;2022-10-16T16:31:46;5.07;;;3.50;;
6667;SDS011;3370;47.712;9.082;2022-10-16T16:34:12;13.73;;;4.07;;
6667;SDS011;3370;47.712;9.082;2022-10-16T16:36:39;6.13;;;4.23;;
6667;SDS011;3370;47.712;9.082;2022-10-16T16:39:06;4.20;;;3.30;;
6667;SDS011;3370;47.712;9.082;2022-10-16T16:41:32;11.50;;;3.67;;
6667;SDS011;3370;47.712;9.082;2022-10-16T16:44:03;3.50;;;2.90;;
6667;SDS011;3370;47.712;9.082;2022-10-16T16:46:31;11.97;;;2.60;;
6667;SDS011;3370;47.712;9.082;2022-10-16T16:48:59;4.97;;;2.60;;
6667;SDS011;3370;47.712;9.082;2022-10-16T16:51:25;2.80;;;2.60;;
6667;SDS011;3370;47.712;9.082;2022-10-16T16:53:52;3.50;;;2.60;;
6667;SDS011;3370;47.712;9.082;2022-10-16T16:56:19;3.83;;;2.60;;
6667;SDS011;3370;47.712;9.082;2022-10-16T16:58:47;7.10;;;2.23;;
6667;SDS011;3370;47.712;9.082;2022-10-16T17:01:15;2.70;;;2.50;;
6667;SDS011;3370;47.712;9.082;2022-10-16T17:03:42;5.73;;;2.23;;
6667;SDS011;3370;47.712;9.082;2022-10-16T17:06:10;3.67;;;1.83;;
6667;SDS011;3370;47.712;9.082;2022-10-16T17:08:38;4.73;;;2.00;;
6667;SDS011;3370;47.712;9.082;2022-10-16T17:11:04;8.77;;;2.17;;
6667;SDS011;3370;47.712;9.082;2022-10-16T17:13:32;4.33;;;2.33;;
6667;SDS011;3370;47.712;9.082;2022-10-16T17:16:02;6.80;;;3.13;;
6667;SDS011;3370;47.712;9.082;2022-10-16T17:18:30;9.00;;;2.60;;
6667;SDS011;3370;47.712;9.082;2022-10-16T17:21:00;5.70;;;2.10;;
6667;SDS011;3370;47.712;9.082;2022-10-16T17:23:29;3.30;;;2.27;;
6667;SDS011;3370;47.712;9.082;2022-10-16T17:25:56;6.43;;;2.10;;
6667;SDS011;3370;47.712;9.082;2022-10-16T17:28:30;7.57;;;2.80;;
6667;SDS011;3370;47.712;9.082;2022-10-16T17:31:06;6.33;;;2.70;;
6667;SDS011;3370;47.712;9.082;2022-10-16T17:33:43;8.47;;;2.67;;
6667;SDS011;3370;47.712;9.082;2022-10-16T17:36:09;5.47;;;2.90;;
6667;SDS011;3370;47.712;9.082;2022-10-16T17:38:36;8.40;;;2.50;;
6667;SDS011;3370;47.712;9.082;2022-10-16T17:43:46;3.80;;;2.23;;
6667;SDS011;3370;47.712;9.082;2022-10-16T17:46:13;9.50;;;2.43;;
6667;SDS011;3370;47.712;9.082;2022-10-16T17:48:43;6.80;;;2.50;;
6667;SDS011;3370;47.712;9.082;2022-10-16T17:51:14;6.87;;;3.00;;
6667;SDS011;3370;47.712;9.082;2022-10-16T17:53:44;10.57;;;3.73;;
6667;SDS011;3370;47.712;9.082;2022-10-16T17:56:14;10.43;;;3.30;;